Time;durP1;ratioP1;P1;durP2;ratioP2;P2;SDS_P1;SDS_P2;PMS_P1;PMS_P2;Temp;Humidity;BMP_temperature;BMP_pressure;BME280_temperature;BME280_humidity;BME280_pressure;Samples;Min_cycle;Max_cycle;Signal;HPM_P1;HPM_P2
2023/10/14 00:01:16;;;;;;;15.05;10.38;;;19.80;99.90;;;;;;5051991;28;20198;-82
2023/10/14 00:03:45;;;;;;;15.88;11.35;;;19.80;99.90;;;;;;5054666;28;20222;-81
2023/10/14 00:06:17;;;;;;;15.32;11.25;;;19.80;99.90;;;;;;5051865;28;20209;-82
2023/10/14 00:08:54;;;;;;;16.83;12.43;;;19.80;99.90;;;;;;5057090;28;20238;-81
2023/10/14 00:11:22;;;;;;;13.35;11.00;;;19.70;99.90;;;;;;5068789;28;20202;-81
2023/10/14 00:13:52;;;;;;;17.63;11.00;;;19.70;1.00;;;;;;5056356;28;20191;-82
2023/10/14 00:16:29;;;;;;;15.60;11.02;;;19.70;99.90;;;;;;5050894;28;20190;-82
2023/10/14 00:18:59;;;;;;;16.70;11.10;;;19.70;1.00;;;;;;5063761;28;20696;-81
2023/10/14 00:21:28;;;;;;;13.23;10.77;;;19.70;1.00;;;;;;5047605;28;20568;-82
2023/10/14 00:23:57;;;;;;;14.60;11.63;;;19.60;27.60;;;;;;5058325;28;20209;-81
2023/10/14 00:26:25;;;;;;;16.45;11.65;;;19.60;51.40;;;;;;5050749;28;20198;-81
2023/10/14 00:29:10;;;;;;;15.43;12.00;;;19.50;99.90;;;;;;5057843;28;20229;-81
2023/10/14 00:31:38;;;;;;;16.67;11.75;;;19.50;1.00;;;;;;5058653;28;20230;-81
2023/10/14 00:34:05;;;;;;;17.90;12.05;;;19.20;1.00;;;;;;5057246;28;20202;-81
2023/10/14 00:36:34;;;;;;;15.45;11.30;;;19.00;99.90;;;;;;5059532;28;20205;-81
2023/10/14 00:39:12;;;;;;;17.80;12.07;;;18.90;99.90;;;;;;5076358;28;20225;-81
2023/10/14 00:41:40;;;;;;;15.55;11.85;;;18.90;99.90;;;;;;5061457;28;20200;-81
2023/10/14 00:44:07;;;;;;;14.27;10.57;;;18.70;99.90;;;;;;5059878;28;20190;-81
2023/10/14 00:46:35;;;;;;;13.75;10.93;;;18.60;99.90;;;;;;5054141;28;20186;-81
2023/10/14 00:49:04;;;;;;;11.82;9.80;;;18.40;99.90;;;;;;5074171;28;20223;-81
2023/10/14 00:51:34;;;;;;;12.63;10.55;;;18.30;99.90;;;;;;5072590;28;20202;-81
2023/10/14 00:54:03;;;;;;;12.73;9.65;;;18.30;99.90;;;;;;5053841;28;20187;-81
2023/10/14 00:56:31;;;;;;;14.15;10.80;;;18.20;99.90;;;;;;5057939;28;20206;-81
2023/10/14 00:59:04;;;;;;;13.25;9.13;;;18.20;99.90;;;;;;5054934;28;20281;-81
2023/10/14 01:01:32;;;;;;;16.42;9.90;;;18.20;99.90;;;;;;5051102;28;20206;-81
2023/10/14 01:04:18;;;;;;;14.95;9.68;;;18.20;99.90;;;;;;5051094;28;20237;-81
2023/10/14 01:07:02;;;;;;;11.60;8.90;;;18.20;99.90;;;;;;5063874;28;20206;-81
2023/10/14 01:09:41;;;;;;;10.68;8.10;;;18.30;99.90;;;;;;5047943;28;20236;-81
2023/10/14 01:12:18;;;;;;;14.15;8.05;;;18.30;99.90;;;;;;5046167;28;20205;-82
2023/10/14 01:14:45;;;;;;;10.75;7.47;;;18.30;99.90;;;;;;5052628;28;20198;-81
2023/10/14 01:17:25;;;;;;;10.00;7.45;;;18.30;99.90;;;;;;5073742;28;20195;-82
2023/10/14 01:19:53;;;;;;;13.93;7.68;;;18.30;99.90;;;;;;5066639;28;20221;-82
2023/10/14 01:22:22;;;;;;;5.32;3.30;;;18.20;99.90;;;;;;5067122;28;20228;-81
2023/10/14 01:24:49;;;;;;;3.38;1.30;;;17.20;99.90;;;;;;5049330;28;20213;-80
2023/10/14 01:27:21;;;;;;;2.05;1.30;;;16.20;99.90;;;;;;5053153;28;20198;-81
2023/10/14 01:29:51;;;;;;;1.02;0.88;;;16.00;99.90;;;;;;5054593;28;20223;-81
2023/10/14 01:32:30;;;;;;;1.00;0.70;;;15.80;99.90;;;;;;5051811;28;20198;-81
2023/10/14 01:35:00;;;;;;;0.63;0.60;;;15.60;99.90;;;;;;5049798;28;20202;-81
2023/10/14 01:37:37;;;;;;;0.60;0.50;;;15.60;99.90;;;;;;5046142;28;20202;-81
2023/10/14 01:40:24;;;;;;;1.75;0.40;;;15.60;99.90;;;;;;5068480;28;20202;-81
2023/10/14 01:42:56;;;;;;;0.90;0.60;;;15.60;99.90;;;;;;5055201;28;20210;-81
2023/10/14 01:45:28;;;;;;;1.15;0.82;;;15.50;99.90;;;;;;5054947;28;20205;-81
2023/10/14 01:50:44;;;;;;;0.63;0.57;;;15.50;99.90;;;;;;5050220;28;20562;-81
2023/10/14 01:53:17;;;;;;;1.27;0.30;;;15.40;99.90;;;;;;5067299;28;20198;-81
2023/10/14 01:55:47;;;;;;;1.30;0.40;;;15.50;99.90;;;;;;5054217;28;20198;-81
2023/10/14 01:58:22;;;;;;;1.65;0.57;;;15.50;99.90;;;;;;5052067;28;20210;-81
2023/10/14 02:00:56;;;;;;;0.98;0.43;;;15.60;99.90;;;;;;5060650;28;20198;-81
2023/10/14 02:03:26;;;;;;;0.95;0.35;;;15.60;99.90;;;;;;5055858;28;20206;-80
2023/10/14 02:05:54;;;;;;;1.00;0.30;;;15.40;99.90;;;;;;5052876;28;20202;-80
2023/10/14 02:08:23;;;;;;;1.00;0.30;;;15.30;99.90;;;;;;5050715;28;20221;-81
2023/10/14 02:10:52;;;;;;;2.28;0.57;;;15.30;99.90;;;;;;5055907;28;20191;-81
2023/10/14 02:13:22;;;;;;;1.33;0.75;;;15.40;99.90;;;;;;5063470;28;20198;-81
2023/10/14 02:15:52;;;;;;;0.95;0.80;;;15.40;99.90;;;;;;5050564;28;20194;-81
2023/10/14 02:18:22;;;;;;;1.60;1.20;;;15.20;99.90;;;;;;5053809;28;20225;-81
2023/10/14 02:21:04;;;;;;;1.60;0.98;;;15.30;99.90;;;;;;5054079;28;20205;-80
2023/10/14 02:23:44;;;;;;;1.65;1.00;;;15.40;99.90;;;;;;5048450;28;20214;-81
2023/10/14 02:26:15;;;;;;;1.75;1.10;;;15.40;99.90;;;;;;5047727;28;20191;-81
2023/10/14 02:28:46;;;;;;;1.55;0.80;;;15.50;99.90;;;;;;5045892;28;20210;-81
2023/10/14 02:31:18;;;;;;;1.60;0.80;;;15.50;99.90;;;;;;5047984;28;20202;-81
2023/10/14 02:33:46;;;;;;;2.05;0.60;;;15.40;99.90;;;;;;5058111;28;20195;-80
2023/10/14 02:36:16;;;;;;;1.75;0.45;;;15.30;99.90;;;;;;5044337;28;20186;-81
2023/10/14 02:38:53;;;;;;;0.40;0.40;;;15.30;99.90;;;;;;5059631;28;20214;-80
2023/10/14 02:41:22;;;;;;;0.55;0.38;;;15.30;99.90;;;;;;5047133;28;20205;-81
2023/10/14 02:43:53;;;;;;;1.00;0.45;;;15.40;99.90;;;;;;5060311;28;20217;-81
2023/10/14 02:46:21;;;;;;;0.70;0.43;;;15.40;99.90;;;;;;5060149;28;20198;-81
2023/10/14 02:48:53;;;;;;;1.00;0.70;;;15.50;99.90;;;;;;5050657;28;20233;-81
2023/10/14 02:51:29;;;;;;;1.58;0.90;;;15.30;99.90;;;;;;5048101;28;20203;-80
2023/10/14 02:54:05;;;;;;;1.90;0.98;;;15.30;99.90;;;;;;5058666;28;20194;-81
2023/10/14 02:56:46;;;;;;;1.75;1.05;;;15.40;99.90;;;;;;5053017;28;20204;-81
2023/10/14 02:59:17;;;;;;;1.70;1.40;;;15.40;99.90;;;;;;5044642;28;20223;-81
2023/10/14 03:01:51;;;;;;;1.88;1.45;;;15.40;99.90;;;;;;5053084;28;20203;-81
2023/10/14 03:04:23;;;;;;;3.65;2.13;;;15.40;99.90;;;;;;5058432;28;20218;-81
2023/10/14 03:06:53;;;;;;;2.50;2.00;;;15.30;99.90;;;;;;5065393;28;20195;-81
2023/10/14 03:09:32;;;;;;;3.20;1.88;;;15.10;99.90;;;;;;5053790;28;20234;-81
2023/10/14 03:12:01;;;;;;;3.33;2.40;;;15.10;99.90;;;;;;5066339;28;20206;-81
2023/10/14 03:14:30;;;;;;;2.90;2.00;;;15.10;99.90;;;;;;5050967;28;20187;-81
2023/10/14 03:16:57;;;;;;;2.55;1.20;;;15.10;99.90;;;;;;5047755;28;20415;-80
2023/10/14 03:19:25;;;;;;;2.20;1.00;;;14.80;99.90;;;;;;5048388;28;20226;-80
2023/10/14 03:21:59;;;;;;;3.90;1.50;;;14.60;99.90;;;;;;5048184;28;20198;-80
2023/10/14 03:24:32;;;;;;;5.60;1.00;;;14.50;99.90;;;;;;5048934;28;20210;-81
2023/10/14 03:27:04;;;;;;;5.10;1.17;;;14.40;99.90;;;;;;5054041;28;20198;-80
2023/10/14 03:29:32;;;;;;;2.85;1.30;;;14.50;99.90;;;;;;5053897;28;20237;-81
2023/10/14 03:32:02;;;;;;;3.75;1.20;;;14.30;99.90;;;;;;5048240;28;20210;-81
2023/10/14 03:34:30;;;;;;;4.53;1.17;;;14.30;99.90;;;;;;5041805;28;20195;-80
2023/10/14 03:37:01;;;;;;;3.75;0.88;;;14.30;99.90;;;;;;5056836;28;20206;-80
2023/10/14 03:39:40;;;;;;;3.42;1.17;;;14.30;99.90;;;;;;5052578;28;20226;-81
2023/10/14 03:42:11;;;;;;;4.85;1.20;;;14.20;99.90;;;;;;5051033;28;20221;-81
2023/10/14 03:44:42;;;;;;;5.13;1.95;;;14.20;99.90;;;;;;5056466;28;20233;-80
2023/10/14 03:47:15;;;;;;;4.55;1.40;;;14.00;99.90;;;;;;5057731;28;20209;-80
2023/10/14 03:49:44;;;;;;;5.65;1.50;;;14.00;99.90;;;;;;5067004;28;20233;-81
2023/10/14 03:52:12;;;;;;;4.07;1.45;;;14.00;99.90;;;;;;5058872;28;20198;-81
2023/10/14 03:54:45;;;;;;;5.88;1.63;;;14.10;99.90;;;;;;5056058;28;20205;-81
2023/10/14 03:57:17;;;;;;;5.25;1.48;;;14.10;99.90;;;;;;5056285;28;20234;-80
2023/10/14 03:59:46;;;;;;;4.35;1.80;;;14.00;99.90;;;;;;5043975;28;20215;-80
2023/10/14 04:02:19;;;;;;;9.80;1.60;;;14.10;99.90;;;;;;5053597;28;20198;-80
2023/10/14 04:04:47;;;;;;;4.53;2.03;;;14.00;99.90;;;;;;5059447;28;20202;-80
2023/10/14 04:07:15;;;;;;;4.57;1.30;;;14.10;99.90;;;;;;5053484;28;20205;-81
2023/10/14 04:09:50;;;;;;;5.72;1.58;;;14.20;99.90;;;;;;5049574;28;20229;-81
2023/10/14 04:12:36;;;;;;;5.63;1.45;;;14.20;99.90;;;;;;5066351;28;20202;-80
2023/10/14 04:15:22;;;;;;;10.55;1.90;;;14.10;99.90;;;;;;5046843;28;20643;-80
2023/10/14 04:17:52;;;;;;;5.10;1.40;;;14.20;99.90;;;;;;5049298;28;20210;-81
2023/10/14 04:20:22;;;;;;;3.58;1.20;;;14.20;99.90;;;;;;5056413;28;20198;-81
2023/10/14 04:22:53;;;;;;;6.85;1.55;;;14.20;99.90;;;;;;5054456;28;20202;-82
2023/10/14 04:25:31;;;;;;;5.88;1.73;;;14.30;99.90;;;;;;5068764;28;20215;-81
2023/10/14 04:30:42;;;;;;;8.70;1.95;;;14.40;99.90;;;;;;5048926;28;20204;-81
2023/10/14 04:33:18;;;;;;;5.78;1.52;;;14.30;99.90;;;;;;5055753;28;20195;-80
2023/10/14 04:35:58;;;;;;;6.85;2.38;;;14.40;99.90;;;;;;5057273;28;20194;-80
2023/10/14 04:38:37;;;;;;;4.80;1.48;;;14.30;99.90;;;;;;5049752;28;20214;-81
2023/10/14 04:41:13;;;;;;;5.68;1.80;;;14.20;99.90;;;;;;5048270;28;20198;-80
2023/10/14 04:46:33;;;;;;;9.27;2.15;;;14.20;99.90;;;;;;5054651;28;20201;-81
2023/10/14 04:49:07;;;;;;;7.18;1.65;;;14.30;99.90;;;;;;5056929;28;20221;-80
2023/10/14 04:51:45;;;;;;;6.05;2.10;;;14.20;99.90;;;;;;5053544;28;20206;-81
2023/10/14 04:54:19;;;;;;;5.32;2.40;;;14.30;99.90;;;;;;5058034;28;20194;-80
2023/10/14 04:56:48;;;;;;;5.60;1.70;;;14.30;99.90;;;;;;5066377;28;20218;-81
2023/10/14 04:59:19;;;;;;;8.63;2.70;;;14.10;99.90;;;;;;5052842;28;20219;-80
2023/10/14 05:01:48;;;;;;;5.40;1.90;;;14.20;99.90;;;;;;5054165;28;20203;-82
2023/10/14 05:04:19;;;;;;;5.65;2.03;;;14.20;99.90;;;;;;5053900;28;20683;-83
2023/10/14 05:06:52;;;;;;;8.32;2.40;;;14.00;99.90;;;;;;5047647;28;20202;-83
2023/10/14 05:09:30;;;;;;;9.45;2.10;;;13.60;99.90;;;;;;5049378;28;20222;-79
2023/10/14 05:12:00;;;;;;;7.25;1.90;;;13.60;99.90;;;;;;5043318;28;20674;-81
2023/10/14 05:14:36;;;;;;;8.77;2.10;;;13.70;99.90;;;;;;5056129;28;20194;-81
2023/10/14 05:17:14;;;;;;;10.82;2.38;;;13.80;99.90;;;;;;5065903;28;20202;-80
2023/10/14 05:19:47;;;;;;;6.55;1.90;;;13.80;99.90;;;;;;5065482;28;20218;-80
2023/10/14 05:22:19;;;;;;;8.70;2.17;;;13.80;99.90;;;;;;5058051;28;20205;-81
2023/10/14 05:24:49;;;;;;;6.38;1.88;;;13.80;99.90;;;;;;5058777;28;20223;-81
2023/10/14 05:27:19;;;;;;;5.55;2.10;;;13.90;99.90;;;;;;5053093;28;20198;-81
2023/10/14 05:29:50;;;;;;;7.45;2.25;;;13.90;99.90;;;;;;5046186;28;20218;-81
2023/10/14 05:32:23;;;;;;;7.00;1.98;;;14.00;99.90;;;;;;5049491;28;20198;-80
2023/10/14 05:34:52;;;;;;;9.40;2.00;;;13.90;99.90;;;;;;5051322;28;20209;-80
2023/10/14 05:37:21;;;;;;;7.90;2.20;;;13.80;99.20;;;;;;5048681;28;20198;-81
2023/10/14 05:39:50;;;;;;;4.72;2.10;;;13.80;8.90;;;;;;5044845;28;20233;-80
2023/10/14 05:42:21;;;;;;;7.68;2.58;;;13.60;73.10;;;;;;5048289;28;20199;-79
2023/10/14 05:45:34;;;;;;;6.72;2.40;;;13.40;91.20;;;;;;5044819;28;20222;-77
2023/10/14 05:48:45;;;;;;;6.15;2.00;;;13.60;99.90;;;;;;5036536;28;20221;-79
2023/10/14 05:51:26;;;;;;;6.05;2.10;;;13.60;1.00;;;;;;5041561;28;20199;-76
2023/10/14 05:53:56;;;;;;;8.30;1.80;;;13.40;99.90;;;;;;5046796;28;20194;-76
2023/10/14 05:56:33;;;;;;;8.07;2.20;;;13.20;99.90;;;;;;5044328;28;20664;-76
2023/10/14 05:59:15;;;;;;;11.00;2.03;;;13.10;99.90;;;;;;5043806;28;20222;-76
2023/10/14 06:01:48;;;;;;;7.10;2.28;;;13.10;99.90;;;;;;5041962;28;20206;-76
2023/10/14 06:04:40;;;;;;;8.10;1.95;;;13.10;99.90;;;;;;5046013;28;20190;-77
2023/10/14 06:07:09;;;;;;;9.70;2.20;;;13.20;99.90;;;;;;5050432;28;20205;-76
2023/10/14 06:09:37;;;;;;;7.47;2.30;;;13.20;99.90;;;;;;5044047;28;20234;-76
2023/10/14 06:12:12;;;;;;;7.68;3.20;;;13.10;99.90;;;;;;5042986;28;20209;-76
2023/10/14 06:14:45;;;;;;;10.13;2.20;;;13.30;99.80;;;;;;5048044;28;20213;-77
2023/10/14 06:17:14;;;;;;;10.77;2.40;;;13.30;1.00;;;;;;5057707;28;20665;-76
2023/10/14 06:19:49;;;;;;;12.73;2.15;;;13.20;1.00;;;;;;5031943;28;20230;-76
2023/10/14 06:22:24;;;;;;;7.78;2.42;;;13.10;1.00;;;;;;5039086;28;20603;-76
2023/10/14 06:24:53;;;;;;;10.95;2.90;;;12.90;1.00;;;;;;5043424;28;20213;-76
2023/10/14 06:27:21;;;;;;;8.13;2.25;;;13.00;1.00;;;;;;5065589;28;20199;-76
2023/10/14 06:29:50;;;;;;;12.02;3.58;;;13.00;1.00;;;;;;5047711;28;20214;-76
2023/10/14 06:32:20;;;;;;;10.60;2.95;;;13.10;1.00;;;;;;5047089;28;20208;-76
2023/10/14 06:34:57;;;;;;;10.63;3.53;;;12.90;99.90;;;;;;5044205;28;20193;-76
2023/10/14 06:37:27;;;;;;;11.10;3.35;;;13.00;1.00;;;;;;5043851;28;20205;-76
2023/10/14 06:39:56;;;;;;;9.02;2.83;;;13.00;1.00;;;;;;5042934;28;20241;-76
2023/10/14 06:42:24;;;;;;;10.77;3.85;;;13.00;99.90;;;;;;5043193;28;20209;-76
2023/10/14 06:44:54;;;;;;;15.55;3.92;;;12.90;1.00;;;;;;5045986;28;20203;-76
2023/10/14 06:47:22;;;;;;;10.13;2.90;;;12.90;1.00;;;;;;5046265;28;20206;-76
2023/10/14 06:49:50;;;;;;;12.55;3.53;;;12.90;1.00;;;;;;5041054;28;20676;-77
2023/10/14 06:52:18;;;;;;;9.52;3.40;;;13.10;1.00;;;;;;5041712;28;20203;-76
2023/10/14 06:54:46;;;;;;;13.60;3.67;;;12.80;1.00;;;;;;5046243;28;20655;-76
2023/10/14 06:57:18;;;;;;;13.07;3.08;;;12.90;1.00;;;;;;5056185;28;20204;-76
2023/10/14 06:59:45;;;;;;;8.20;2.70;;;12.80;56.90;;;;;;5040686;28;20615;-76
2023/10/14 07:02:31;;;;;;;8.10;2.83;;;12.70;99.90;;;;;;5052948;28;20198;-75
2023/10/14 07:04:59;;;;;;;10.77;2.87;;;12.70;99.90;;;;;;5061251;28;20193;-77
2023/10/14 07:07:26;;;;;;;10.90;3.35;;;12.90;99.90;;;;;;5055874;28;20195;-77
2023/10/14 07:09:54;;;;;;;10.90;3.38;;;12.90;99.90;;;;;;5038689;28;20229;-77
2023/10/14 07:12:22;;;;;;;11.88;3.03;;;12.90;99.90;;;;;;5052838;28;20221;-77
2023/10/14 07:14:49;;;;;;;7.78;3.45;;;12.80;99.90;;;;;;5046104;28;20549;-77
2023/10/14 07:17:22;;;;;;;8.65;2.80;;;13.00;99.90;;;;;;5047351;28;20206;-77
2023/10/14 07:19:51;;;;;;;9.85;2.47;;;13.10;99.90;;;;;;5044114;28;20222;-77
2023/10/14 07:22:20;;;;;;;7.40;3.17;;;13.20;60.50;;;;;;5048263;28;20206;-77
2023/10/14 07:24:48;;;;;;;8.77;2.85;;;13.40;1.00;;;;;;5037407;28;20213;-78
2023/10/14 07:27:18;;;;;;;9.77;2.78;;;13.20;1.00;;;;;;5049132;28;20199;-78
2023/10/14 07:29:46;;;;;;;6.68;2.42;;;13.00;99.90;;;;;;5044559;28;20222;-78
2023/10/14 07:32:15;;;;;;;6.88;2.60;;;13.40;99.90;;;;;;5039304;28;20548;-78
2023/10/14 07:34:43;;;;;;;9.57;2.65;;;13.50;1.00;;;;;;5044610;28;20202;-78
2023/10/14 07:37:13;;;;;;;8.00;2.70;;;13.20;1.00;;;;;;5040508;28;20198;-78
2023/10/14 07:39:40;;;;;;;7.93;2.97;;;13.30;1.00;;;;;;5044943;28;20576;-79
2023/10/14 07:42:13;;;;;;;7.80;2.30;;;13.30;1.00;;;;;;5044642;28;20575;-79
2023/10/14 07:44:40;;;;;;;9.70;2.40;;;13.50;1.00;;;;;;5042416;28;20214;-78
2023/10/14 07:47:10;;;;;;;8.23;2.92;;;13.30;99.90;;;;;;5049730;28;20214;-77
2023/10/14 07:49:38;;;;;;;13.40;3.60;;;13.40;99.90;;;;;;5045096;28;20229;-78
2023/10/14 07:52:14;;;;;;;9.05;3.03;;;13.30;1.00;;;;;;5037038;28;20199;-77
2023/10/14 07:54:43;;;;;;;8.52;2.90;;;13.40;99.90;;;;;;5043828;28;20233;-77
2023/10/14 07:57:12;;;;;;;8.35;3.55;;;13.30;99.90;;;;;;5044284;28;20191;-77
2023/10/14 07:59:39;;;;;;;7.28;3.45;;;13.50;99.90;;;;;;5050165;28;20579;-77
2023/10/14 08:02:07;;;;;;;7.38;2.78;;;13.40;1.00;;;;;;5058471;28;20203;-77
2023/10/14 08:04:35;;;;;;;9.80;2.38;;;13.40;1.00;;;;;;5062977;28;20665;-77
2023/10/14 08:07:05;;;;;;;9.00;2.95;;;13.40;99.90;;;;;;5056068;28;20237;-77
2023/10/14 08:09:35;;;;;;;9.30;2.78;;;13.50;99.90;;;;;;5048142;28;20234;-77
2023/10/14 08:12:05;;;;;;;13.20;3.08;;;13.50;83.50;;;;;;5048441;28;20198;-77
2023/10/14 08:14:32;;;;;;;8.43;3.38;;;13.60;1.00;;;;;;5045572;28;20221;-77
2023/10/14 08:17:00;;;;;;;9.60;3.50;;;13.60;1.00;;;;;;5043327;28;20203;-77
2023/10/14 08:19:27;;;;;;;10.48;2.53;;;13.80;1.00;;;;;;5058787;28;20721;-77
2023/10/14 08:21:55;;;;;;;10.65;3.00;;;13.60;99.90;;;;;;5046309;28;20206;-77
2023/10/14 08:24:22;;;;;;;9.90;3.05;;;13.70;99.90;;;;;;5060207;28;20210;-77
2023/10/14 08:26:50;;;;;;;9.27;2.97;;;13.70;1.00;;;;;;5043934;28;20213;-77
2023/10/14 08:29:20;;;;;;;10.43;3.60;;;13.70;1.00;;;;;;5050398;28;20237;-77
2023/10/14 08:31:51;;;;;;;8.93;2.75;;;13.70;1.00;;;;;;5046792;28;20206;-77
2023/10/14 08:34:18;;;;;;;8.18;2.90;;;13.60;99.90;;;;;;5056680;28;20577;-77
2023/10/14 08:36:46;;;;;;;9.70;2.83;;;13.80;99.90;;;;;;5039438;28;20195;-77
2023/10/14 08:39:14;;;;;;;12.90;4.00;;;13.80;1.00;;;;;;5050966;28;20226;-78
2023/10/14 08:41:45;;;;;;;10.88;2.90;;;14.00;99.90;;;;;;5058487;28;20681;-79
2023/10/14 08:44:14;;;;;;;11.32;3.17;;;13.90;1.00;;;;;;5047231;28;20202;-77
2023/10/14 08:46:43;;;;;;;7.90;2.80;;;13.70;99.90;;;;;;5050359;28;20214;-77
2023/10/14 08:49:12;;;;;;;12.65;3.17;;;13.70;1.00;;;;;;5054652;28;20222;-78
2023/10/14 08:51:42;;;;;;;7.65;2.25;;;13.90;19.60;;;;;;5049507;28;20201;-77
2023/10/14 08:54:12;;;;;;;8.57;3.17;;;13.70;1.00;;;;;;5052819;28;20684;-78
2023/10/14 08:56:42;;;;;;;9.25;2.90;;;13.70;1.00;;;;;;5050166;28;20198;-77
2023/10/14 08:59:12;;;;;;;9.65;2.47;;;13.80;1.00;;;;;;5054772;28;20218;-78
2023/10/14 09:01:40;;;;;;;8.95;2.35;;;13.90;84.50;;;;;;5049444;28;20214;-77
2023/10/14 09:04:11;;;;;;;9.90;2.55;;;13.90;99.90;;;;;;5062276;28;20209;-77
2023/10/14 09:06:39;;;;;;;12.90;3.30;;;13.90;99.90;;;;;;5045440;28;20223;-77
2023/10/14 09:09:16;;;;;;;11.68;2.95;;;14.00;99.90;;;;;;5049666;28;20999;-77
2023/10/14 09:11:44;;;;;;;8.13;2.25;;;14.00;99.90;;;;;;5044605;28;20217;-78
2023/10/14 09:14:18;;;;;;;9.77;3.30;;;13.90;99.90;;;;;;5053209;28;20198;-78
2023/10/14 09:16:49;;;;;;;6.53;2.85;;;13.90;99.90;;;;;;5051437;28;20206;-78
2023/10/14 09:19:18;;;;;;;15.52;2.65;;;14.10;99.90;;;;;;5058670;28;20571;-78
2023/10/14 09:21:47;;;;;;;9.93;2.95;;;14.20;99.90;;;;;;5066654;28;20207;-79
2023/10/14 09:24:18;;;;;;;7.07;2.55;;;14.30;99.90;;;;;;5040502;28;20202;-77
2023/10/14 09:26:46;;;;;;;9.40;2.70;;;14.30;99.90;;;;;;5042950;28;20225;-77
2023/10/14 09:29:13;;;;;;;8.32;2.70;;;14.30;99.90;;;;;;5058130;28;20226;-77
2023/10/14 09:31:46;;;;;;;10.80;3.05;;;14.30;99.90;;;;;;5057053;28;20213;-78
2023/10/14 09:34:24;;;;;;;7.50;2.58;;;14.50;99.90;;;;;;5047286;28;20571;-77
2023/10/14 09:36:55;;;;;;;11.70;3.35;;;14.40;99.90;;;;;;5042086;28;20198;-77
2023/10/14 09:39:28;;;;;;;6.80;1.83;;;14.50;99.90;;;;;;5050432;28;20229;-77
2023/10/14 09:41:58;;;;;;;8.07;2.00;;;14.40;99.90;;;;;;5048311;28;20203;-78
2023/10/14 09:44:27;;;;;;;13.73;2.58;;;14.40;99.90;;;;;;5071718;22;20218;-76
2023/10/14 09:46:55;;;;;;;8.35;2.20;;;14.50;99.90;;;;;;5064694;28;20218;-76
2023/10/14 09:49:25;;;;;;;8.90;2.00;;;14.60;99.90;;;;;;5063285;28;20193;-76
2023/10/14 09:51:55;;;;;;;9.25;2.33;;;14.50;99.90;;;;;;5060542;28;20679;-76
2023/10/14 09:54:24;;;;;;;10.05;2.53;;;14.50;99.90;;;;;;5059641;28;20218;-76
2023/10/14 09:56:53;;;;;;;9.05;2.13;;;14.80;99.90;;;;;;5039716;28;20202;-76
2023/10/14 09:59:22;;;;;;;8.73;2.35;;;14.60;99.90;;;;;;5040657;28;20207;-76
2023/10/14 10:01:50;;;;;;;6.15;1.98;;;14.70;99.90;;;;;;5067821;28;20201;-76
2023/10/14 10:04:21;;;;;;;9.05;2.80;;;14.70;99.90;;;;;;5050375;28;20229;-76
2023/10/14 10:07:02;;;;;;;13.00;2.35;;;14.50;99.90;;;;;;5061756;28;20694;-76
2023/10/14 10:09:52;;;;;;;9.07;2.38;;;14.60;99.90;;;;;;5041888;28;20217;-76
2023/10/14 10:12:21;;;;;;;8.32;2.33;;;14.70;99.90;;;;;;5042140;28;20202;-76
2023/10/14 10:14:57;;;;;;;8.63;2.80;;;14.70;99.90;;;;;;5046022;28;20237;-77
2023/10/14 10:17:27;;;;;;;8.77;2.17;;;14.60;99.90;;;;;;5049741;28;20205;-78
2023/10/14 10:20:09;;;;;;;11.13;1.98;;;14.40;99.90;;;;;;5045198;28;20205;-77
2023/10/14 10:22:43;;;;;;;8.07;2.83;;;14.60;99.90;;;;;;5050578;28;20217;-77
2023/10/14 10:25:14;;;;;;;8.30;2.13;;;14.80;99.90;;;;;;5037373;28;20233;-77
2023/10/14 10:27:42;;;;;;;6.70;1.67;;;14.80;99.90;;;;;;5043482;28;20223;-78
2023/10/14 10:30:13;;;;;;;12.00;2.63;;;14.70;99.90;;;;;;5046645;28;20205;-78
2023/10/14 10:32:46;;;;;;;10.38;2.47;;;14.70;99.90;;;;;;5064185;28;20277;-77
2023/10/14 10:35:17;;;;;;;12.07;3.15;;;14.60;99.90;;;;;;5047314;28;20233;-79
2023/10/14 10:37:52;;;;;;;8.50;2.63;;;15.10;99.90;;;;;;5054289;28;20203;-78
2023/10/14 10:40:26;;;;;;;10.57;2.75;;;15.10;99.90;;;;;;5063130;28;20226;-78
2023/10/14 10:42:56;;;;;;;9.52;2.15;;;15.00;99.90;;;;;;5062131;28;20202;-77
2023/10/14 10:45:29;;;;;;;8.60;2.28;;;14.90;99.90;;;;;;5040028;28;20860;-77
2023/10/14 10:47:59;;;;;;;10.25;2.28;;;14.70;99.90;;;;;;5045688;28;20217;-77
2023/10/14 10:50:28;;;;;;;9.65;2.60;;;14.50;99.90;;;;;;5044014;28;20202;-77
2023/10/14 10:53:18;;;;;;;4.63;1.90;;;14.40;99.90;;;;;;5065204;28;20194;-77
2023/10/14 10:55:47;;;;;;;7.38;2.20;;;14.60;99.90;;;;;;5063631;28;20225;-77
2023/10/14 10:58:16;;;;;;;9.65;2.45;;;14.60;99.90;;;;;;5046459;28;20687;-77
2023/10/14 11:00:46;;;;;;;9.32;2.17;;;14.70;99.90;;;;;;5045777;28;20198;-77
2023/10/14 11:03:15;;;;;;;10.30;2.15;;;14.60;99.90;;;;;;5044168;28;20202;-77
2023/10/14 11:05:43;;;;;;;8.73;2.28;;;14.30;99.90;;;;;;5045546;28;20226;-76
2023/10/14 11:08:11;;;;;;;8.40;1.75;;;14.30;99.90;;;;;;5063921;28;20222;-77
2023/10/14 11:10:42;;;;;;;6.65;2.10;;;14.40;99.90;;;;;;5064711;28;20241;-77
2023/10/14 11:13:13;;;;;;;10.80;2.40;;;14.70;99.90;;;;;;5066233;28;20206;-77
2023/10/14 11:15:43;;;;;;;7.28;1.83;;;14.90;99.90;;;;;;5049936;28;20233;-77
2023/10/14 11:18:15;;;;;;;6.20;2.50;;;15.10;99.90;;;;;;5052946;28;20541;-77
2023/10/14 11:20:45;;;;;;;9.27;2.90;;;15.30;99.90;;;;;;5062080;28;20206;-77
2023/10/14 11:23:14;;;;;;;9.45;1.80;;;15.50;99.90;;;;;;5049712;28;20203;-77
2023/10/14 11:25:45;;;;;;;8.93;2.00;;;15.80;99.90;;;;;;5043258;28;20245;-77
2023/10/14 11:28:15;;;;;;;9.02;2.00;;;16.00;99.30;;;;;;5063102;28;20218;-77
2023/10/14 11:30:44;;;;;;;11.18;2.10;;;16.00;98.90;;;;;;5050395;28;20206;-77
2023/10/14 11:33:15;;;;;;;6.63;1.90;;;16.30;98.60;;;;;;5063680;28;20210;-77
2023/10/14 11:35:42;;;;;;;9.98;2.30;;;15.60;99.20;;;;;;5046426;28;20227;-77
2023/10/14 11:38:13;;;;;;;8.32;2.05;;;15.30;98.40;;;;;;5050680;28;20198;-78
2023/10/14 11:40:47;;;;;;;6.35;1.90;;;15.10;98.70;;;;;;5059856;28;20207;-77
2023/10/14 11:43:16;;;;;;;6.88;1.73;;;14.90;99.90;;;;;;5043706;28;20205;-77
2023/10/14 11:45:44;;;;;;;7.60;2.20;;;15.10;99.90;;;;;;5055198;28;20258;-77
2023/10/14 11:48:22;;;;;;;7.15;1.90;;;15.10;99.90;;;;;;5045627;28;20605;-77
2023/10/14 11:50:52;;;;;;;8.65;1.98;;;15.00;99.90;;;;;;5064337;28;20210;-78
2023/10/14 11:53:27;;;;;;;6.65;1.80;;;14.80;99.90;;;;;;5058977;28;20213;-78
2023/10/14 11:55:58;;;;;;;7.82;2.28;;;14.80;99.90;;;;;;5044199;28;20218;-77
2023/10/14 11:58:40;;;;;;;6.28;2.00;;;14.70;99.90;;;;;;5045898;28;20201;-77
2023/10/14 12:01:09;;;;;;;6.45;1.77;;;14.80;99.90;;;;;;5043947;28;20210;-77
2023/10/14 12:03:36;;;;;;;7.43;2.08;;;15.10;99.90;;;;;;5056755;28;20218;-77
2023/10/14 12:06:07;;;;;;;10.68;2.17;;;15.30;99.70;;;;;;5052742;28;20207;-77
2023/10/14 12:08:37;;;;;;;5.90;1.83;;;15.40;99.30;;;;;;5048187;28;20214;-78
2023/10/14 12:11:08;;;;;;;8.50;1.90;;;15.10;99.90;;;;;;5048103;28;20213;-77
2023/10/14 12:13:36;;;;;;;4.90;2.25;;;15.00;99.90;;;;;;5040339;28;20206;-77
2023/10/14 12:16:05;;;;;;;8.10;1.85;;;15.00;99.90;;;;;;5045558;28;20697;-77
2023/10/14 12:18:36;;;;;;;7.20;1.70;;;15.00;99.90;;;;;;5044147;28;20202;-76
2023/10/14 12:21:27;;;;;;;7.55;2.15;;;15.00;98.40;;;;;;5044299;28;20218;-77
2023/10/14 12:24:02;;;;;;;5.30;1.67;;;15.60;97.30;;;;;;5037939;28;20218;-77
2023/10/14 12:26:33;;;;;;;6.80;1.70;;;16.00;96.80;;;;;;5035833;28;20194;-77
2023/10/14 12:29:07;;;;;;;10.05;2.00;;;16.00;96.10;;;;;;5040250;28;20206;-77
2023/10/14 12:31:38;;;;;;;6.18;1.67;;;16.00;95.80;;;;;;5042080;28;20290;-77
2023/10/14 12:34:08;;;;;;;5.95;1.88;;;16.30;95.80;;;;;;5058038;28;20680;-77
2023/10/14 12:36:40;;;;;;;6.78;2.05;;;16.60;93.90;;;;;;5046693;28;20205;-77
2023/10/14 12:39:18;;;;;;;5.38;1.67;;;16.70;92.70;;;;;;5065580;28;20209;-77
2023/10/14 12:45:21;;;;;;;5.50;1.80;;;17.10;90.10;;;;;;5045732;28;20226;-77
2023/10/14 12:47:48;;;;;;;5.03;1.35;;;17.10;90.00;;;;;;5047435;28;20658;-77
2023/10/14 12:50:19;;;;;;;4.22;1.65;;;16.90;89.40;;;;;;5049385;28;20195;-77
2023/10/14 12:52:49;;;;;;;6.05;1.90;;;17.20;87.80;;;;;;5047380;28;20212;-77
2023/10/14 12:55:22;;;;;;;5.53;2.13;;;18.00;90.10;;;;;;5050298;28;20579;-77
2023/10/14 12:57:49;;;;;;;9.13;2.10;;;18.10;82.90;;;;;;5064582;28;20203;-77
2023/10/14 13:00:25;;;;;;;7.68;1.88;;;18.70;83.60;;;;;;5041650;28;20190;-77
2023/10/14 13:02:53;;;;;;;7.45;1.73;;;17.90;79.50;;;;;;5047925;28;20193;-76
2023/10/14 13:05:20;;;;;;;5.93;1.50;;;17.30;83.70;;;;;;5046605;28;20222;-77
2023/10/14 13:07:51;;;;;;;3.75;1.80;;;17.70;81.60;;;;;;5048219;28;20205;-76
2023/10/14 13:10:19;;;;;;;4.75;1.40;;;17.20;82.50;;;;;;5044938;28;20202;-76
2023/10/14 13:12:50;;;;;;;3.22;1.30;;;16.80;79.00;;;;;;5067591;28;20576;-77
2023/10/14 13:15:28;;;;;;;3.63;1.30;;;17.30;76.00;;;;;;5050946;28;20565;-77
2023/10/14 13:17:57;;;;;;;4.72;1.58;;;17.70;75.40;;;;;;5044013;28;20194;-77
2023/10/14 13:20:28;;;;;;;3.83;1.40;;;18.10;74.70;;;;;;5065818;28;20198;-76